Hauptseite
METAR-TAF:

METAR-TAF

Flughäfen :

Guilin, China

Flughafen Guilin-Liangjiang

Breite: 25-20N, Länge: 110-18E, Höhe: 166 m

Beobachtung

Neuester Wetterbericht von vor 1 Stunde und 6 Minuten, um 13:00 UTC
Wind 10 kt aus Nordost
Temperatur 12°C
Luftfeuchtigkeit 82%
Luftdruck 1021 hPa
Sichtweite 10 km oder mehr
Durchbrochene Bewölkung in der Höhe von 2600 ft
Geschlossene Wolkendecke in der Höhe von 4600 ft

METAR: ZGKL 241300Z 05005MPS 9999 BKN026 OVC046 12/09 Q1021 NOSIG

Zeit: 22:06 (14:06 UTC)

Prognose

Neuester Wetterbericht von vor 5 Stunden und 3 Minuten, um 09:03 UTC
Gültige Prognose vom 24 um 12 UTC bis 25 um 12 UTC
Wind 8 kt aus Nordost
Sichtweite: 4000 m
Leicht bewölkt in der Höhe von 600 ft
Aufgelockert bewölkt in der Höhe von 2300 ft
Geschlossene Wolkendecke in der Höhe von 3300 ft
Leichtregen, feuchter Dunst

TAF: ZGKL 240903Z 2412/2512 05004MPS 4000 -RA BR FEW006 SCT023 OVC033 TX16/2508Z TN11/2422Z

Wetterbeobachtungen und Prognosen von mehr als 4000 Flughäfen (METAR und TAF Bericht).

Die verfügbaren Stationen werden durch gelbe und rote Markierungen auf der Karte dargestellt.

Führen Sie die Maus auf sie, um den Namen der Station zu sehen.

Darauf klicken, um die Beobachtung von Wetterbeobachtungen und Prognosen zu sehen.

Um die Karte zu ändern : klicken Sie auf den grünen Tasten mit einem schwarzen Kreuz Zum Vergrößern, auf den grünen Button mit einem Gedankenstrich zu verkleinern, oder auf die grünen Pfeile für benachbarte Karten.


METAR-TAF: